createdAt,value
2022-10-22T00:01:00.429Z,0.70
2022-10-22T00:03:28.200Z,0.60
2022-10-22T00:05:56.208Z,0.70
2022-10-22T00:08:24.014Z,0.50
2022-10-22T00:10:52.769Z,0.60
2022-10-22T00:13:22.607Z,0.60
2022-10-22T00:15:50.494Z,0.60
2022-10-22T00:18:18.470Z,0.40
2022-10-22T00:20:46.271Z,0.60
2022-10-22T00:23:14.010Z,0.77
2022-10-22T00:25:41.721Z,0.30
2022-10-22T00:28:11.424Z,0.50
2022-10-22T00:30:40.513Z,0.40
2022-10-22T00:33:08.231Z,0.60
2022-10-22T00:35:36.234Z,0.40
2022-10-22T00:38:04.261Z,0.40
2022-10-22T00:40:32.412Z,0.43
2022-10-22T00:43:00.108Z,0.50
2022-10-22T00:45:28.938Z,0.40
2022-10-22T00:48:01.717Z,0.40
2022-10-22T00:50:32.626Z,0.40
2022-10-22T00:53:01.491Z,0.50
2022-10-22T00:55:30.748Z,0.40
2022-10-22T00:58:00.895Z,0.60
2022-10-22T01:00:29.078Z,0.53
2022-10-22T01:02:59.012Z,0.50
2022-10-22T01:05:28.420Z,0.70
2022-10-22T01:07:58.486Z,0.60
2022-10-22T01:10:39.974Z,0.53
2022-10-22T01:13:23.047Z,0.40
2022-10-22T01:16:01.769Z,0.50
2022-10-22T01:18:38.612Z,0.50
2022-10-22T01:21:19.762Z,0.50
2022-10-22T01:24:24.638Z,0.50
2022-10-22T01:27:03.767Z,0.40
2022-10-22T01:29:38.467Z,0.43
2022-10-22T01:32:10.838Z,0.40
2022-10-22T01:34:41.381Z,0.60
2022-10-22T01:37:11.513Z,0.33
2022-10-22T01:39:41.379Z,0.50
2022-10-22T01:42:09.112Z,0.50
2022-10-22T01:44:38.196Z,0.60
2022-10-22T01:47:16.802Z,0.40
2022-10-22T01:50:11.136Z,0.60
2022-10-22T01:52:52.348Z,0.50
2022-10-22T01:55:31.030Z,0.50
2022-10-22T01:58:18.982Z,0.47
2022-10-22T02:00:54.959Z,0.50
2022-10-22T02:03:27.815Z,0.60
2022-10-22T02:06:02.888Z,0.30
2022-10-22T02:08:33.785Z,0.57
2022-10-22T02:11:02.430Z,0.70
2022-10-22T02:13:35.995Z,0.63
2022-10-22T02:16:10.666Z,0.50
2022-10-22T02:18:44.345Z,0.63
2022-10-22T02:21:12.482Z,0.50
2022-10-22T02:23:40.522Z,0.53
2022-10-22T02:26:17.724Z,0.47
2022-10-22T02:28:55.029Z,0.57
2022-10-22T02:31:27.166Z,0.60
2022-10-22T02:33:59.291Z,0.90
2022-10-22T02:36:27.406Z,0.50
2022-10-22T02:38:55.939Z,0.70
2022-10-22T02:41:24.458Z,0.50
2022-10-22T02:43:56.969Z,0.50
2022-10-22T02:46:27.186Z,0.50
2022-10-22T02:48:57.124Z,0.57
2022-10-22T02:51:24.797Z,0.50
2022-10-22T02:53:54.913Z,0.50
2022-10-22T02:56:23.050Z,0.60
2022-10-22T02:58:50.772Z,0.40
2022-10-22T03:01:18.591Z,0.40
2022-10-22T03:03:47.702Z,0.47
2022-10-22T03:06:15.475Z,0.60
2022-10-22T03:08:46.772Z,0.50
2022-10-22T03:11:14.782Z,0.60
2022-10-22T03:13:42.506Z,0.70
2022-10-22T03:16:10.298Z,0.50
2022-10-22T03:18:38.018Z,0.50
2022-10-22T03:21:11.020Z,0.43
2022-10-22T03:23:40.306Z,0.40
2022-10-22T03:26:09.306Z,0.40
2022-10-22T03:28:37.985Z,0.43
2022-10-22T03:31:05.780Z,1.30
2022-10-22T03:33:33.516Z,0.60
2022-10-22T03:36:01.913Z,0.63
2022-10-22T03:38:31.692Z,0.60
2022-10-22T03:40:59.799Z,0.67
2022-10-22T03:43:28.326Z,0.60
2022-10-22T03:45:58.435Z,0.80
2022-10-22T03:48:26.176Z,0.70
2022-10-22T03:50:53.918Z,0.63
2022-10-22T03:53:21.614Z,0.90
2022-10-22T03:55:50.743Z,0.43
2022-10-22T03:58:18.534Z,0.73
2022-10-22T04:00:46.266Z,0.93
2022-10-22T04:03:13.949Z,0.70
2022-10-22T04:05:41.899Z,0.50
2022-10-22T04:08:09.965Z,0.70
2022-10-22T04:10:38.003Z,0.60
2022-10-22T04:13:07.350Z,0.37
2022-10-22T04:15:37.304Z,0.50
2022-10-22T04:18:05.994Z,0.47
2022-10-22T04:20:34.034Z,0.50
2022-10-22T04:23:02.127Z,0.50
2022-10-22T04:25:30.371Z,0.50
2022-10-22T04:27:58.419Z,0.60
2022-10-22T04:30:28.459Z,0.50
2022-10-22T04:32:56.333Z,0.60
2022-10-22T04:37:57.192Z,0.40
2022-10-22T04:40:25.001Z,0.57
2022-10-22T04:42:52.712Z,0.60
2022-10-22T04:45:20.398Z,0.90
2022-10-22T04:47:49.743Z,0.70
2022-10-22T04:50:17.625Z,0.43
2022-10-22T04:52:45.456Z,0.60
2022-10-22T04:55:13.203Z,0.53
2022-10-22T04:57:41.095Z,0.60
2022-10-22T05:00:10.134Z,0.50
2022-10-22T05:02:37.888Z,0.90
2022-10-22T05:05:07.356Z,1.10
2022-10-22T05:07:37.100Z,0.70
2022-10-22T05:10:05.506Z,1.13
2022-10-22T05:12:36.351Z,0.87
2022-10-22T05:15:04.258Z,0.57
2022-10-22T05:17:31.944Z,0.70
2022-10-22T05:19:59.668Z,0.57
2022-10-22T05:22:28.895Z,0.50
2022-10-22T05:24:56.835Z,0.50
2022-10-22T05:27:25.470Z,0.57
2022-10-22T05:29:53.227Z,0.87
2022-10-22T05:32:20.944Z,0.70
2022-10-22T05:34:48.630Z,0.60
2022-10-22T05:37:16.370Z,0.70
2022-10-22T05:39:45.417Z,0.80
2022-10-22T05:42:13.213Z,0.57
2022-10-22T05:44:40.988Z,0.80
2022-10-22T05:47:10.030Z,0.80
2022-10-22T05:49:38.209Z,0.77
2022-10-22T05:52:06.251Z,0.60
2022-10-22T05:54:34.234Z,0.70
2022-10-22T05:57:03.431Z,0.57
2022-10-22T05:59:31.348Z,0.60
2022-10-22T06:01:59.213Z,0.40
2022-10-22T06:04:29.331Z,0.53
2022-10-22T06:06:57.390Z,0.50
2022-10-22T06:09:28.323Z,0.70
2022-10-22T06:11:57.065Z,0.80
2022-10-22T06:14:27.329Z,0.70
2022-10-22T06:16:55.791Z,0.67
2022-10-22T06:19:25.674Z,0.60
2022-10-22T06:21:54.098Z,0.90
2022-10-22T06:24:21.944Z,0.70
2022-10-22T06:26:50.637Z,0.60
2022-10-22T06:29:18.455Z,0.80
2022-10-22T06:31:47.666Z,0.73
2022-10-22T06:34:18.735Z,0.60
2022-10-22T06:36:47.340Z,0.70
2022-10-22T06:39:16.957Z,0.80
2022-10-22T06:41:44.678Z,1.13
2022-10-22T06:44:20.516Z,0.80
2022-10-22T06:46:52.749Z,0.90
2022-10-22T06:49:21.748Z,1.07
2022-10-22T06:51:51.236Z,0.90
2022-10-22T06:54:19.203Z,0.90
2022-10-22T06:56:46.919Z,0.87
2022-10-22T06:59:14.668Z,0.90
2022-10-22T07:01:42.991Z,0.60
2022-10-22T07:04:12.330Z,0.70
2022-10-22T07:06:40.352Z,0.80
2022-10-22T07:09:08.237Z,0.80
2022-10-22T07:11:41.191Z,0.90
2022-10-22T07:14:09.502Z,0.73
2022-10-22T07:16:37.817Z,0.77
2022-10-22T07:19:06.660Z,0.70
2022-10-22T07:21:36.045Z,0.70
2022-10-22T07:24:03.807Z,0.90
2022-10-22T07:26:32.681Z,0.90
2022-10-22T07:29:01.049Z,0.93
2022-10-22T07:31:28.984Z,0.93
2022-10-22T07:33:59.400Z,0.90
2022-10-22T07:36:27.371Z,1.00
2022-10-22T07:38:58.506Z,0.93
2022-10-22T07:41:27.474Z,0.70
2022-10-22T07:43:55.306Z,0.60
2022-10-22T07:46:23.915Z,1.20
2022-10-22T07:48:54.034Z,0.60
2022-10-22T07:51:21.959Z,0.70
2022-10-22T07:53:49.649Z,0.90
2022-10-22T07:56:21.042Z,1.00
2022-10-22T07:58:48.801Z,1.00
2022-10-22T08:01:16.617Z,1.20
2022-10-22T08:03:44.697Z,0.90
2022-10-22T08:06:14.643Z,1.00
2022-10-22T08:08:43.401Z,1.10
2022-10-22T08:11:11.482Z,0.90
2022-10-22T08:13:45.083Z,1.20
2022-10-22T08:16:13.543Z,0.80
2022-10-22T08:18:41.265Z,1.00
2022-10-22T08:21:09.055Z,0.80
2022-10-22T08:23:38.968Z,0.80
2022-10-22T08:26:07.232Z,1.17
2022-10-22T08:28:37.050Z,1.00
2022-10-22T08:31:09.473Z,1.02
2022-10-22T08:33:38.725Z,1.05
2022-10-22T08:36:07.214Z,1.17
2022-10-22T08:38:35.243Z,1.10
2022-10-22T08:41:10.182Z,0.80
2022-10-22T08:44:02.815Z,0.80
2022-10-22T08:46:48.385Z,0.70
2022-10-22T08:49:22.547Z,1.30
2022-10-22T08:51:50.625Z,0.80
2022-10-22T08:54:26.318Z,0.80
2022-10-22T08:57:10.876Z,0.80
2022-10-22T08:59:46.767Z,0.70
2022-10-22T09:02:31.547Z,0.65
2022-10-22T09:05:11.447Z,0.70
2022-10-22T09:07:43.049Z,0.70
2022-10-22T09:10:13.602Z,0.60
2022-10-22T09:12:41.740Z,0.70
2022-10-22T09:15:14.848Z,0.73
2022-10-22T09:17:57.678Z,0.52
2022-10-22T09:20:34.184Z,0.70
2022-10-22T09:23:17.673Z,0.40
2022-10-22T09:25:46.850Z,0.60
2022-10-22T09:28:17.349Z,0.52
2022-10-22T09:30:45.714Z,0.68
2022-10-22T09:33:21.323Z,0.63
2022-10-22T09:35:54.004Z,0.52
2022-10-22T09:38:32.276Z,0.52
2022-10-22T09:41:03.714Z,0.70
2022-10-22T09:43:35.974Z,0.60
2022-10-22T09:46:08.686Z,0.70
2022-10-22T09:48:42.586Z,0.77
2022-10-22T09:51:16.352Z,0.50
2022-10-22T09:53:46.029Z,0.98
2022-10-22T09:56:22.628Z,0.50
2022-10-22T09:58:51.880Z,0.30
2022-10-22T10:01:23.082Z,0.60
2022-10-22T10:03:52.178Z,0.70
2022-10-22T10:06:21.446Z,0.70
2022-10-22T10:08:50.310Z,0.65
2022-10-22T10:11:29.420Z,0.60
2022-10-22T10:14:10.168Z,0.52
2022-10-22T10:16:46.823Z,0.50
2022-10-22T10:19:34.697Z,0.60
2022-10-22T10:22:11.493Z,0.47
2022-10-22T10:24:58.972Z,0.40
2022-10-22T10:27:32.021Z,0.40
2022-10-22T10:30:03.767Z,0.60
2022-10-22T10:32:53.848Z,0.57
2022-10-22T10:35:27.775Z,0.47
2022-10-22T10:38:10.318Z,0.55
2022-10-22T10:40:45.949Z,0.50
2022-10-22T10:43:18.145Z,0.40
2022-10-22T10:45:55.975Z,0.70
2022-10-22T10:48:37.977Z,0.50
2022-10-22T10:51:24.964Z,0.50
2022-10-22T10:54:15.600Z,0.60
2022-10-22T10:56:51.514Z,0.65
2022-10-22T10:59:30.336Z,1.02
2022-10-22T11:02:16.468Z,0.60
2022-10-22T11:05:05.863Z,1.05
2022-10-22T11:07:41.259Z,0.60
2022-10-22T11:10:20.656Z,0.70
2022-10-22T11:17:09.499Z,0.60
2022-10-22T11:19:51.679Z,0.65
2022-10-22T11:22:27.330Z,0.50
2022-10-22T11:25:02.373Z,0.60
2022-10-22T11:27:37.081Z,0.70
2022-10-22T11:30:10.042Z,0.60
2022-10-22T11:32:39.869Z,0.70
2022-10-22T11:35:12.841Z,0.85
2022-10-22T11:37:41.305Z,0.88
2022-10-22T11:40:17.457Z,0.50
2022-10-22T11:42:50.321Z,0.55
2022-10-22T11:45:35.058Z,0.80
2022-10-22T11:48:15.858Z,0.98
2022-10-22T11:50:50.802Z,0.77
2022-10-22T11:53:31.218Z,0.60
2022-10-22T11:56:22.338Z,1.00
2022-10-22T11:58:53.735Z,0.63
2022-10-22T12:01:28.650Z,0.60
2022-10-22T12:04:18.819Z,0.77
2022-10-22T12:06:56.027Z,0.63
2022-10-22T12:09:26.571Z,0.60
2022-10-22T12:11:55.708Z,0.90
2022-10-22T12:14:26.792Z,1.50
2022-10-22T12:16:58.136Z,0.75
2022-10-22T12:19:30.154Z,0.50
2022-10-22T12:22:00.952Z,0.60
2022-10-22T12:24:34.091Z,0.77
2022-10-22T12:27:03.207Z,0.70
2022-10-22T12:29:33.322Z,0.77
2022-10-22T12:32:05.065Z,0.60
2022-10-22T12:34:32.874Z,0.60
2022-10-22T12:37:00.718Z,0.60
2022-10-22T12:39:29.026Z,0.90
2022-10-22T12:41:58.868Z,0.70
2022-10-22T12:44:28.171Z,0.70
2022-10-22T12:46:57.043Z,0.80
2022-10-22T12:49:32.987Z,0.90
2022-10-22T12:52:03.509Z,0.82
2022-10-22T12:54:35.111Z,0.50
2022-10-22T12:57:03.537Z,0.77
2022-10-22T12:59:36.482Z,0.90
2022-10-22T13:02:11.304Z,0.57
2022-10-22T13:04:39.889Z,0.52
2022-10-22T13:07:21.246Z,0.70
2022-10-22T13:09:59.313Z,0.90
2022-10-22T13:12:29.722Z,0.98
2022-10-22T13:14:58.863Z,0.70
2022-10-22T13:17:41.214Z,0.73
2022-10-22T13:20:19.290Z,0.88
2022-10-22T13:23:00.529Z,0.40
2022-10-22T13:25:31.795Z,0.80
2022-10-22T13:28:02.293Z,0.70
2022-10-22T13:30:34.160Z,0.93
2022-10-22T13:33:04.239Z,0.80
2022-10-22T13:35:35.011Z,0.88
2022-10-22T13:38:03.775Z,0.90
2022-10-22T13:40:31.567Z,4.55
2022-10-22T13:42:59.420Z,1.80
2022-10-22T13:45:27.767Z,1.38
2022-10-22T13:47:57.164Z,1.27
2022-10-22T13:50:25.354Z,3.83
2022-10-22T13:52:55.432Z,1.20
2022-10-22T13:55:25.564Z,1.50
2022-10-22T13:57:56.122Z,1.02
2022-10-22T14:00:27.796Z,1.00
2022-10-22T14:03:00.163Z,0.85
2022-10-22T14:05:28.004Z,0.85
2022-10-22T14:07:57.826Z,0.70
2022-10-22T14:10:26.012Z,0.77
2022-10-22T14:12:54.241Z,0.80
2022-10-22T14:15:24.970Z,1.10
2022-10-22T14:17:57.675Z,0.70
2022-10-22T14:20:30.316Z,0.90
2022-10-22T14:23:08.975Z,0.82
2022-10-22T14:25:37.235Z,0.90
2022-10-22T14:28:05.360Z,0.82
2022-10-22T14:30:33.187Z,0.70
2022-10-22T14:33:01.060Z,1.17
2022-10-22T14:35:30.315Z,1.10
2022-10-22T14:37:58.857Z,0.75
2022-10-22T14:40:26.674Z,0.77
2022-10-22T14:42:54.694Z,0.70
2022-10-22T14:45:24.835Z,0.80
2022-10-22T14:47:54.865Z,0.68
2022-10-22T14:50:23.284Z,0.60
2022-10-22T14:52:52.481Z,1.23
2022-10-22T14:55:21.283Z,0.90
2022-10-22T14:57:49.006Z,1.02
2022-10-22T15:00:19.041Z,0.95
2022-10-22T15:02:47.527Z,0.70
2022-10-22T15:05:17.343Z,1.08
2022-10-22T15:07:45.094Z,0.80
2022-10-22T15:10:14.534Z,0.95
2022-10-22T15:12:42.304Z,0.82
2022-10-22T15:15:11.275Z,0.80
2022-10-22T15:17:39.325Z,1.30
2022-10-22T15:20:08.541Z,0.93
2022-10-22T15:22:36.325Z,1.02
2022-10-22T15:25:07.068Z,1.30
2022-10-22T15:27:37.149Z,1.02
2022-10-22T15:30:05.957Z,1.10
2022-10-22T15:32:34.992Z,1.13
2022-10-22T15:35:02.806Z,1.30
2022-10-22T15:37:30.875Z,1.30
2022-10-22T15:40:00.493Z,1.77
2022-10-22T15:42:28.290Z,1.60
2022-10-22T15:44:59.815Z,2.25
2022-10-22T15:47:29.587Z,1.48
2022-10-22T15:50:02.598Z,1.42
2022-10-22T15:52:31.935Z,2.03
2022-10-22T15:54:59.854Z,1.77
2022-10-22T15:57:31.363Z,1.88
2022-10-22T16:00:00.471Z,2.00
2022-10-22T16:02:28.230Z,2.20
2022-10-22T16:04:56.263Z,2.65
2022-10-22T16:07:27.130Z,2.47
2022-10-22T16:09:57.026Z,3.00
2022-10-22T16:12:25.126Z,2.60
2022-10-22T16:14:53.376Z,2.97
2022-10-22T16:17:23.187Z,2.97
2022-10-22T16:19:51.054Z,3.58
2022-10-22T16:22:21.324Z,2.65
2022-10-22T16:24:49.235Z,1.98
2022-10-22T16:27:16.930Z,2.10
2022-10-22T16:29:44.673Z,2.20
2022-10-22T16:32:13.234Z,1.80
2022-10-22T16:34:42.333Z,2.47
2022-10-22T16:37:10.591Z,2.00
2022-10-22T16:39:38.771Z,2.35
2022-10-22T16:42:07.203Z,2.53
2022-10-22T16:44:37.317Z,2.28
2022-10-22T16:47:05.117Z,5.30
2022-10-22T16:49:32.892Z,5.40
2022-10-22T16:52:02.074Z,5.32
2022-10-22T16:54:29.910Z,6.30
2022-10-22T16:56:57.657Z,5.47
2022-10-22T16:59:25.517Z,6.15
2022-10-22T17:01:54.489Z,7.07
2022-10-22T17:04:23.540Z,5.05
2022-10-22T17:06:51.482Z,6.10
2022-10-22T17:09:20.994Z,5.80
2022-10-22T17:11:49.145Z,5.80
2022-10-22T17:14:17.050Z,5.00
2022-10-22T17:16:45.151Z,6.13
2022-10-22T17:19:15.806Z,6.55
2022-10-22T17:21:44.063Z,8.30
2022-10-22T17:24:11.829Z,6.57
2022-10-22T17:26:41.697Z,8.70
2022-10-22T17:29:09.556Z,8.10
2022-10-22T17:31:39.245Z,8.45
2022-10-22T17:34:12.078Z,7.85
2022-10-22T17:36:41.936Z,8.27
2022-10-22T17:39:12.622Z,9.43
2022-10-22T17:41:41.730Z,7.38
2022-10-22T17:44:10.079Z,6.25
2022-10-22T17:46:39.241Z,6.40
2022-10-22T17:49:13.349Z,8.50
2022-10-22T17:51:41.574Z,8.95
2022-10-22T17:54:10.227Z,9.82
2022-10-22T17:56:40.013Z,7.97
2022-10-22T17:59:10.697Z,9.48
2022-10-22T18:01:43.411Z,9.90
2022-10-22T18:04:14.193Z,10.80
2022-10-22T18:06:42.040Z,13.52
2022-10-22T18:09:15.738Z,11.15
2022-10-22T18:11:46.523Z,11.48
2022-10-22T18:14:15.702Z,10.38
2022-10-22T18:16:43.424Z,10.60
2022-10-22T18:19:12.037Z,9.55
2022-10-22T18:21:42.110Z,11.05
2022-10-22T18:24:10.778Z,12.75
2022-10-22T18:26:38.592Z,10.35
2022-10-22T18:29:06.301Z,8.95
2022-10-22T18:31:35.444Z,7.32
2022-10-22T18:34:03.209Z,9.05
2022-10-22T18:36:30.976Z,8.27
2022-10-22T18:39:00.539Z,7.72
2022-10-22T18:41:29.912Z,7.80
2022-10-22T18:43:59.282Z,6.72
2022-10-22T18:46:28.011Z,6.00
2022-10-22T18:48:59.942Z,5.60
2022-10-22T18:51:30.599Z,6.63
2022-10-22T18:54:05.302Z,5.22
2022-10-22T18:56:40.036Z,5.72
2022-10-22T18:59:08.235Z,5.00
2022-10-22T19:01:37.979Z,4.32
2022-10-22T19:04:07.435Z,4.57
2022-10-22T19:06:37.104Z,3.83
2022-10-22T19:09:05.813Z,5.15
2022-10-22T19:11:33.711Z,4.65
2022-10-22T19:14:01.535Z,3.67
2022-10-22T19:16:29.485Z,3.40
2022-10-22T19:19:02.026Z,4.53
2022-10-22T19:21:31.235Z,3.67
2022-10-22T19:24:01.163Z,3.42
2022-10-22T19:26:30.646Z,3.15
2022-10-22T19:29:01.231Z,4.10
2022-10-22T19:31:31.415Z,3.13
2022-10-22T19:34:00.347Z,4.38
2022-10-22T19:36:30.062Z,3.50
2022-10-22T19:39:00.086Z,3.38
2022-10-22T19:41:29.845Z,3.65
2022-10-22T19:44:01.311Z,3.83
2022-10-22T19:46:30.306Z,5.22
2022-10-22T19:48:58.078Z,4.10
2022-10-22T19:51:29.594Z,3.90
2022-10-22T19:54:03.810Z,4.45
2022-10-22T19:56:32.665Z,4.30
2022-10-22T19:59:00.693Z,3.53
2022-10-22T20:01:28.952Z,3.90
2022-10-22T20:03:56.723Z,3.23
2022-10-22T20:06:24.717Z,3.90
2022-10-22T20:08:55.936Z,2.80
2022-10-22T20:11:27.585Z,3.17
2022-10-22T20:13:56.528Z,2.77
2022-10-22T20:16:28.331Z,3.30
2022-10-22T20:18:56.553Z,4.00
2022-10-22T20:21:24.346Z,2.80
2022-10-22T20:23:54.368Z,2.45
2022-10-22T20:26:23.829Z,3.30
2022-10-22T20:28:53.273Z,2.73
2022-10-22T20:31:24.023Z,3.70
2022-10-22T20:33:52.257Z,3.17
2022-10-22T20:36:22.272Z,2.63
2022-10-22T20:38:50.594Z,3.63
2022-10-22T20:41:20.710Z,3.72
2022-10-22T20:43:50.747Z,2.90
2022-10-22T20:46:22.998Z,2.55
2022-10-22T20:48:52.726Z,3.30
2022-10-22T20:51:20.556Z,2.50
2022-10-22T20:53:48.309Z,2.70
2022-10-22T20:56:17.600Z,3.03
2022-10-22T20:58:48.472Z,2.97
2022-10-22T21:01:21.370Z,2.97
2022-10-22T21:03:51.781Z,2.57
2022-10-22T21:06:20.939Z,2.95
2022-10-22T21:08:48.895Z,2.53
2022-10-22T21:11:16.801Z,3.00
2022-10-22T21:13:44.656Z,3.50
2022-10-22T21:16:14.588Z,3.53
2022-10-22T21:18:42.595Z,3.43
2022-10-22T21:21:12.368Z,3.40
2022-10-22T21:23:41.020Z,2.60
2022-10-22T21:26:09.204Z,3.57
2022-10-22T21:28:37.783Z,3.20
2022-10-22T21:31:07.620Z,2.87
2022-10-22T21:33:36.799Z,3.30
2022-10-22T21:36:05.677Z,3.33
2022-10-22T21:38:35.863Z,4.40
2022-10-22T21:41:05.625Z,3.57
2022-10-22T21:43:37.538Z,3.73
2022-10-22T21:46:08.059Z,3.57
2022-10-22T21:48:36.719Z,4.77
2022-10-22T21:51:08.707Z,4.30
2022-10-22T21:53:38.592Z,4.60
2022-10-22T21:56:07.757Z,5.90
2022-10-22T21:58:36.126Z,5.50
2022-10-22T22:01:04.608Z,5.10
2022-10-22T22:03:32.524Z,4.40
2022-10-22T22:06:01.158Z,2.80
2022-10-22T22:08:29.459Z,3.27
2022-10-22T22:11:04.166Z,3.00
2022-10-22T22:13:32.482Z,2.90
2022-10-22T22:16:01.866Z,3.37
2022-10-22T22:18:30.264Z,3.53
2022-10-22T22:20:58.071Z,3.53
2022-10-22T22:23:27.607Z,3.90
2022-10-22T22:25:59.484Z,4.17
2022-10-22T22:28:30.151Z,4.50
2022-10-22T22:30:58.533Z,5.00
2022-10-22T22:33:26.405Z,3.93
2022-10-22T22:35:54.197Z,4.10
2022-10-22T22:38:21.968Z,3.50
2022-10-22T22:40:49.754Z,3.20
2022-10-22T22:43:17.505Z,2.70
2022-10-22T22:45:48.923Z,2.40
2022-10-22T22:48:16.633Z,3.07
2022-10-22T22:50:44.342Z,4.70
2022-10-22T22:53:12.036Z,5.03
2022-10-22T22:55:39.844Z,5.77
2022-10-22T22:58:07.560Z,4.80
2022-10-22T23:00:35.397Z,4.57
2022-10-22T23:03:05.167Z,4.17
2022-10-22T23:05:32.903Z,3.90
2022-10-22T23:08:00.662Z,4.27
2022-10-22T23:10:28.444Z,4.33
2022-10-22T23:12:58.257Z,3.90
2022-10-22T23:15:25.984Z,3.87
2022-10-22T23:17:53.722Z,3.60
2022-10-22T23:20:22.768Z,4.63
2022-10-22T23:22:50.482Z,3.33
2022-10-22T23:25:18.209Z,5.07
2022-10-22T23:27:45.955Z,5.17
2022-10-22T23:30:15.760Z,5.17
2022-10-22T23:32:43.541Z,5.17
2022-10-22T23:35:11.269Z,4.47
2022-10-22T23:37:40.571Z,4.20
2022-10-22T23:40:09.603Z,4.17
2022-10-22T23:45:08.152Z,4.20
2022-10-22T23:47:36.500Z,4.27
2022-10-22T23:50:04.432Z,4.63
2022-10-22T23:52:32.129Z,5.27
2022-10-22T23:55:03.496Z,4.33
2022-10-22T23:57:31.301Z,4.90
